Time;durP1;ratioP1;P1;durP2;ratioP2;P2;SDS_P1;SDS_P2;PMS_P1;PMS_P2;Temp;Humidity;BMP_temperature;BMP_pressure;BME280_temperature;BME280_humidity;BME280_pressure;Samples;Min_cycle;Max_cycle;Signal;HPM_P1;HPM_P2
2022/05/31 00:01:47;;;;;;;12.93;10.23;;;;;;;11.91;nan;93508.00;5031198;28;20257;-88
2022/05/31 00:04:33;;;;;;;11.70;9.77;;;;;;;12.02;nan;93507.25;5025686;28;20265;-87
2022/05/31 00:07:18;;;;;;;13.53;9.73;;;;;;;12.08;nan;93516.03;5015265;28;20201;-88
2022/05/31 00:10:04;;;;;;;15.60;10.67;;;;;;;11.84;nan;93503.34;5017089;28;20197;-88
2022/05/31 00:12:49;;;;;;;18.07;11.80;;;;;;;12.11;nan;93504.28;5021005;28;20285;-88
2022/05/31 00:15:34;;;;;;;15.83;11.03;;;;;;;12.36;nan;93495.19;5011223;28;20202;-89
2022/05/31 00:18:19;;;;;;;13.87;10.80;;;;;;;12.47;nan;93494.41;5004706;28;20210;-88
2022/05/31 00:21:04;;;;;;;15.83;11.60;;;;;;;12.38;nan;93494.59;5012069;28;20253;-88
2022/05/31 00:23:48;;;;;;;16.93;12.07;;;;;;;12.44;nan;93492.13;5010932;28;20221;-87
2022/05/31 00:26:33;;;;;;;14.70;11.27;;;;;;;12.61;nan;93490.94;5002845;28;20198;-87
2022/05/31 00:29:17;;;;;;;15.73;11.90;;;;;;;12.68;nan;93484.34;5021026;28;20642;-88
2022/05/31 00:32:08;;;;;;;15.67;11.50;;;;;;;12.85;nan;93486.69;5011398;28;20202;-88
2022/05/31 00:34:54;;;;;;;17.00;12.70;;;;;;;12.92;nan;93485.69;5031443;28;20253;-88
2022/05/31 00:37:38;;;;;;;18.93;14.10;;;;;;;13.06;nan;93486.47;5011504;28;20205;-88
2022/05/31 00:40:26;;;;;;;11.10;9.17;;;;;;;12.96;nan;93497.88;5009024;28;20317;-88
2022/05/31 00:43:22;;;;;;;16.70;11.00;;;;;;;12.92;nan;93486.41;5002946;28;20683;-88
2022/05/31 00:46:07;;;;;;;11.13;7.80;;;;;;;12.97;nan;93490.19;5030388;28;20222;-88
2022/05/31 00:48:57;;;;;;;10.13;8.27;;;;;;;12.86;nan;93488.16;5033185;28;20248;-88
2022/05/31 00:51:46;;;;;;;10.63;9.13;;;;;;;12.85;nan;93487.44;5007220;28;20209;-86
2022/05/31 00:54:32;;;;;;;12.03;8.93;;;;;;;12.92;nan;93496.94;5013815;28;20225;-86
2022/05/31 00:57:18;;;;;;;15.27;9.87;;;;;;;13.07;nan;93490.03;5021294;28;20210;-88
2022/05/31 01:00:12;;;;;;;15.50;9.30;;;;;;;13.18;nan;93495.59;5020639;28;20686;-88
2022/05/31 01:03:00;;;;;;;10.20;8.63;;;;;;;13.23;nan;93497.28;4999646;28;20210;-89
2022/05/31 01:05:46;;;;;;;10.50;8.40;;;;;;;13.19;nan;93480.19;4985522;28;20226;-88
2022/05/31 01:08:31;;;;;;;12.80;9.07;;;;;;;13.08;nan;93492.22;4987138;28;20199;-88
2022/05/31 01:11:39;;;;;;;11.27;8.30;;;;;;;13.04;nan;93483.53;4968400;28;20238;-88
2022/05/31 01:15:01;;;;;;;10.27;8.07;;;;;;;13.12;nan;93486.84;5012791;28;20195;-88
2022/05/31 01:18:07;;;;;;;9.23;7.50;;;;;;;13.18;nan;93484.34;5004850;28;20203;-88
2022/05/31 01:21:10;;;;;;;9.30;7.30;;;;;;;13.20;nan;93476.03;5016175;28;20257;-88
2022/05/31 01:24:24;;;;;;;7.43;6.43;;;;;;;13.19;nan;93479.47;5004069;28;20207;-88
2022/05/31 01:27:24;;;;;;;7.17;6.10;;;;;;;13.13;nan;93481.94;5015310;28;20227;-88
2022/05/31 01:30:10;;;;;;;9.60;7.50;;;;;;;13.09;nan;93482.41;4985261;28;20202;-88
2022/05/31 01:33:00;;;;;;;8.30;6.93;;;;;;;13.02;nan;93480.63;4999076;28;20253;-88
2022/05/31 01:35:46;;;;;;;10.23;6.87;;;;;;;12.98;nan;93477.59;4996865;28;20254;-88
2022/05/31 01:38:54;;;;;;;8.50;6.33;;;;;;;12.98;nan;93471.97;5016575;28;20203;-88
2022/05/31 01:41:49;;;;;;;7.93;6.47;;;;;;;12.95;nan;93467.59;5000531;28;20187;-87
2022/05/31 01:44:37;;;;;;;7.70;6.77;;;;;;;12.90;nan;93472.25;5014080;28;20262;-88
2022/05/31 01:47:22;;;;;;;9.40;7.33;;;;;;;12.93;nan;93461.84;5000612;28;20289;-88
2022/05/31 01:50:12;;;;;;;8.47;6.60;;;;;;;12.87;nan;93464.31;5000649;28;20678;-88
2022/05/31 01:52:56;;;;;;;8.20;6.53;;;;;;;12.82;nan;93454.22;4991913;28;20531;-88
2022/05/31 01:55:44;;;;;;;10.03;7.87;;;;;;;12.92;nan;93457.56;5000405;28;20705;-88
2022/05/31 01:58:34;;;;;;;8.30;7.13;;;;;;;12.95;nan;93461.97;5001255;28;20198;-88
2022/05/31 02:01:19;;;;;;;10.20;7.47;;;;;;;12.99;nan;93453.75;4986927;28;20230;-89
2022/05/31 02:04:04;;;;;;;8.17;7.17;;;;;;;12.98;nan;93449.47;5013821;28;20230;-87
2022/05/31 02:07:10;;;;;;;7.97;6.67;;;;;;;12.92;nan;93463.19;4999906;28;20266;-88
2022/05/31 02:09:54;;;;;;;10.87;7.53;;;;;;;12.91;nan;93456.09;4998755;28;20202;-88
2022/05/31 02:12:44;;;;;;;9.10;7.07;;;;;;;12.67;nan;93454.75;4994167;28;20703;-88
2022/05/31 02:15:54;;;;;;;6.70;6.00;;;;;;;12.56;nan;93462.63;5011188;28;20202;-87
2022/05/31 02:22:16;;;;;;;11.13;7.00;;;;;;;12.51;nan;93466.56;5019708;28;20258;-88
2022/05/31 02:25:00;;;;;;;9.40;6.97;;;;;;;12.63;nan;93471.41;5022298;28;20269;-87
2022/05/31 02:27:45;;;;;;;9.57;6.77;;;;;;;12.64;nan;93470.78;5022071;28;20191;-88
2022/05/31 02:30:29;;;;;;;10.73;7.83;;;;;;;12.63;nan;93472.13;5014162;28;20222;-87
2022/05/31 02:33:14;;;;;;;8.40;6.80;;;;;;;12.74;nan;93473.44;5018675;28;20203;-87
2022/05/31 02:35:58;;;;;;;11.33;7.13;;;;;;;12.83;nan;93478.16;5036124;28;20198;-88
2022/05/31 02:38:43;;;;;;;7.97;6.63;;;;;;;12.77;nan;93475.00;5007072;28;20238;-89
2022/05/31 02:41:29;;;;;;;8.30;6.33;;;;;;;12.66;nan;93481.41;5007670;28;20210;-86
2022/05/31 02:44:14;;;;;;;6.87;5.80;;;;;;;12.72;nan;93476.84;5017935;28;20227;-88
2022/05/31 02:47:01;;;;;;;7.53;5.67;;;;;;;12.69;nan;93483.00;5017440;28;20194;-87
2022/05/31 02:49:47;;;;;;;7.63;6.30;;;;;;;12.56;nan;93490.72;4996727;28;20206;-88
2022/05/31 02:52:33;;;;;;;7.53;6.53;;;;;;;12.46;nan;93487.34;5013208;28;20203;-86
2022/05/31 02:55:19;;;;;;;11.10;7.50;;;;;;;12.59;nan;93476.81;5017338;28;20675;-87
2022/05/31 02:58:25;;;;;;;7.40;6.37;;;;;;;12.64;nan;93478.50;5019150;28;20183;-87
2022/05/31 03:01:34;;;;;;;9.07;6.83;;;;;;;12.62;nan;93476.28;5028370;28;20267;-87
2022/05/31 03:04:37;;;;;;;11.93;7.67;;;;;;;12.53;nan;93475.09;5016350;28;20230;-86
2022/05/31 03:07:40;;;;;;;12.30;7.73;;;;;;;12.69;nan;93474.56;5023039;28;20202;-87
2022/05/31 03:10:36;;;;;;;13.67;8.47;;;;;;;12.54;nan;93476.56;5001298;28;20309;-88
2022/05/31 03:13:24;;;;;;;12.30;8.73;;;;;;;12.87;nan;93486.81;5002522;28;20409;-87
2022/05/31 03:16:10;;;;;;;9.53;7.37;;;;;;;12.85;nan;93475.44;5029781;28;20230;-86
2022/05/31 03:19:02;;;;;;;11.50;8.37;;;;;;;13.12;nan;93472.00;5035103;28;20187;-86
2022/05/31 03:21:53;;;;;;;10.43;7.07;;;;;;;13.21;nan;93477.47;5016735;28;20290;-87
2022/05/31 03:24:49;;;;;;;8.60;6.87;;;;;;;13.18;nan;93473.09;5014838;28;20272;-87
2022/05/31 03:27:34;;;;;;;9.50;7.77;;;;;;;13.10;nan;93481.06;4992065;28;20230;-85
2022/05/31 03:30:19;;;;;;;10.30;7.93;;;;;;;13.14;nan;93489.03;4995842;28;20198;-88
2022/05/31 03:33:07;;;;;;;10.33;8.50;;;;;;;13.32;nan;93487.94;4995639;28;20579;-88
2022/05/31 03:35:51;;;;;;;8.67;7.57;;;;;;;13.38;nan;93484.72;4984337;28;20292;-87
2022/05/31 03:38:43;;;;;;;8.30;7.07;;;;;;;13.49;nan;93494.44;4989606;28;20284;-87
2022/05/31 03:41:34;;;;;;;10.47;8.27;;;;;;;13.56;nan;93487.78;4989250;28;20214;-87
2022/05/31 03:44:20;;;;;;;9.93;6.80;;;;;;;13.67;nan;93492.59;5008235;28;20203;-87
2022/05/31 03:47:05;;;;;;;8.83;6.73;;;;;;;13.74;nan;93486.66;4996175;28;20206;-87
2022/05/31 03:50:09;;;;;;;7.37;6.60;;;;;;;13.89;nan;93484.56;5003983;28;20786;-88
2022/05/31 03:52:54;;;;;;;7.57;6.77;;;;;;;13.93;nan;93485.53;4988287;28;20288;-86
2022/05/31 03:55:45;;;;;;;7.47;6.60;;;;;;;14.14;nan;93482.38;4998731;28;20257;-87
2022/05/31 03:58:32;;;;;;;7.43;6.33;;;;;;;14.54;nan;93494.25;4996139;28;20250;-87
2022/05/31 04:01:34;;;;;;;7.93;6.27;;;;;;;14.66;nan;93500.50;5001308;28;20543;-88
2022/05/31 04:04:19;;;;;;;6.07;5.57;;;;;;;14.92;nan;93490.50;4992146;28;20238;-88
2022/05/31 04:07:04;;;;;;;7.40;5.20;;;;;;;14.98;nan;93485.16;4997798;28;20198;-87
2022/05/31 04:09:53;;;;;;;6.73;5.23;;;;;;;14.98;nan;93496.44;4985175;28;20210;-87
2022/05/31 04:12:39;;;;;;;7.80;5.67;;;;;;;15.24;nan;93476.47;5010821;28;20218;-87
2022/05/31 04:15:29;;;;;;;7.73;5.90;;;;;;;15.27;nan;93472.38;5011409;28;20190;-87
2022/05/31 04:18:20;;;;;;;5.50;4.70;;;;;;;14.85;nan;93482.38;5012094;28;20198;-89
2022/05/31 04:21:07;;;;;;;8.07;5.07;;;;;;;15.15;nan;93480.25;4997205;28;20214;-87
2022/05/31 04:23:58;;;;;;;6.97;5.50;;;;;;;15.38;nan;93468.63;4993584;28;20222;-88
2022/05/31 04:27:03;;;;;;;5.40;4.90;;;;;;;15.03;nan;93480.41;5006932;28;20262;-88
2022/05/31 04:29:56;;;;;;;8.57;6.03;;;;;;;15.28;nan;93499.97;4985154;28;20266;-86
2022/05/31 04:32:59;;;;;;;6.73;5.50;;;;;;;15.39;nan;93499.06;4994842;28;20253;-87
2022/05/31 04:36:02;;;;;;;6.00;5.10;;;;;;;15.60;nan;93503.59;4996859;28;20275;-89
2022/05/31 04:38:47;;;;;;;6.83;4.80;;;;;;;15.71;nan;93510.41;4987828;28;20223;-90
2022/05/31 04:41:36;;;;;;;4.80;4.40;;;;;;;15.31;nan;93501.50;4977324;28;20234;-90
2022/05/31 04:44:27;;;;;;;7.93;4.47;;;;;;;15.60;nan;93489.47;4971015;28;20230;-88
2022/05/31 04:47:11;;;;;;;5.93;4.47;;;;;;;15.82;nan;93497.47;4995457;28;20222;-89
2022/05/31 04:50:00;;;;;;;4.20;3.80;;;;;;;15.73;nan;93508.44;4983936;28;20318;-89
2022/05/31 04:52:50;;;;;;;6.63;4.20;;;;;;;16.08;nan;93512.78;4996688;28;20680;-89
2022/05/31 04:55:36;;;;;;;3.37;3.07;;;;;;;16.25;nan;93503.63;4984096;28;20202;-88
2022/05/31 04:58:22;;;;;;;3.70;3.40;;;;;;;16.40;nan;93505.72;4970937;28;20686;-89
2022/05/31 05:01:06;;;;;;;3.40;2.97;;;;;;;16.73;nan;93510.66;4976940;28;20266;-90
2022/05/31 05:03:54;;;;;;;5.13;3.00;;;;;;;16.53;nan;93504.88;5021136;28;20258;-88
2022/05/31 05:06:38;;;;;;;5.20;2.93;;;;;;;16.63;nan;93512.34;5020326;28;20273;-89
2022/05/31 05:09:24;;;;;;;3.90;2.90;;;;;;;16.25;nan;93514.94;4997601;28;20269;-89
2022/05/31 05:12:27;;;;;;;6.33;2.77;;;;;;;16.64;nan;93510.97;5009737;28;20773;-88
2022/05/31 05:15:42;;;;;;;3.13;2.57;;;;;;;16.43;nan;93518.56;4969708;28;20203;-88
2022/05/31 05:18:30;;;;;;;3.27;2.77;;;;;;;16.56;nan;93505.66;4995694;28;20575;-88
2022/05/31 05:21:15;;;;;;;4.20;2.67;;;;;;;16.53;nan;93519.00;5009847;28;20207;-89
2022/05/31 05:24:00;;;;;;;7.97;3.30;;;;;;;16.47;nan;93512.38;5010035;28;20249;-89
2022/05/31 05:26:59;;;;;;;5.23;3.73;;;;;;;16.68;nan;93513.97;5008029;28;20296;-89
2022/05/31 05:33:19;;;;;;;9.23;3.70;;;;;;;17.40;nan;93522.59;5010023;28;20227;-88
2022/05/31 05:36:24;;;;;;;4.40;2.90;;;;;;;17.88;nan;93523.06;5012743;28;20203;-88
2022/05/31 05:39:10;;;;;;;5.97;2.50;;;;;;;18.56;nan;93524.84;5014653;28;20206;-88
2022/05/31 05:41:57;;;;;;;7.27;1.43;;;;;;;18.69;nan;93528.84;5013126;28;20202;-88
2022/05/31 05:45:03;;;;;;;1.90;1.60;;;;;;;18.56;nan;93529.81;5017631;28;20262;-88
2022/05/31 05:47:47;;;;;;;3.57;1.30;;;;;;;18.74;nan;93529.72;5014015;28;20218;-89
2022/05/31 05:50:38;;;;;;;3.60;1.23;;;;;;;19.08;nan;93527.28;5012528;28;20199;-88
2022/05/31 05:53:25;;;;;;;1.67;1.30;;;;;;;18.98;nan;93531.25;5001032;28;20203;-89
2022/05/31 05:56:29;;;;;;;1.33;1.00;;;;;;;19.31;nan;93524.56;5015034;28;20573;-88
2022/05/31 05:59:32;;;;;;;2.03;1.07;;;;;;;19.23;nan;93529.22;5014067;28;20214;-89
2022/05/31 06:02:45;;;;;;;2.10;1.00;;;;;;;20.12;nan;93526.34;5012602;28;20206;-89
2022/05/31 06:05:47;;;;;;;2.60;1.13;;;;;;;19.98;nan;93523.06;5012031;28;20595;-88
2022/05/31 06:08:41;;;;;;;3.03;1.13;;;;;;;19.91;nan;93512.91;5012260;28;20223;-89
2022/05/31 06:11:40;;;;;;;1.80;0.70;;;;;;;19.99;nan;93513.16;5008641;28;20209;-90
2022/05/31 06:14:30;;;;;;;1.07;0.93;;;;;;;20.21;nan;93525.19;5010278;28;20202;-90
2022/05/31 06:17:21;;;;;;;2.43;1.03;;;;;;;20.09;nan;93524.81;5013305;28;20692;-88
2022/05/31 06:20:08;;;;;;;2.13;1.00;;;;;;;19.75;nan;93530.91;4997463;28;20687;-91
2022/05/31 06:22:52;;;;;;;1.77;0.90;;;;;;;19.70;nan;93529.34;5011230;28;20624;-90
2022/05/31 06:25:37;;;;;;;2.03;1.20;;;;;;;19.69;nan;93527.88;5003048;28;20274;-89
2022/05/31 06:28:41;;;;;;;0.80;0.80;;;;;;;20.14;nan;93529.22;5016496;28;20202;-90
2022/05/31 06:31:26;;;;;;;3.83;1.03;;;;;;;19.69;nan;93527.16;5031830;28;20810;-89
2022/05/31 06:34:12;;;;;;;0.97;0.80;;;;;;;19.60;nan;93534.72;5001350;28;20210;-90
2022/05/31 06:37:16;;;;;;;3.30;0.90;;;;;;;19.93;nan;93549.94;5016582;28;20210;-91
2022/05/31 06:40:01;;;;;;;1.03;0.90;;;;;;;19.99;nan;93541.59;5012244;28;20217;-89
2022/05/31 06:43:01;;;;;;;1.03;0.93;;;;;;;20.46;nan;93523.78;5025587;28;20207;-89
2022/05/31 06:46:09;;;;;;;3.07;1.03;;;;;;;20.21;nan;93530.88;5027133;28;20294;-87
2022/05/31 06:49:14;;;;;;;1.63;1.00;;;;;;;20.57;nan;93529.09;5022402;28;20206;-90
2022/05/31 06:59:15;;;;;;;1.33;0.90;;;;;;;21.16;nan;93532.81;5015284;28;20261;-91
2022/05/31 07:02:06;;;;;;;1.30;0.87;;;;;;;21.16;nan;93533.53;5009948;28;20231;-91
2022/05/31 07:04:50;;;;;;;1.20;1.00;;;;;;;21.59;nan;93537.44;4985311;28;20251;-90
2022/05/31 07:07:34;;;;;;;0.70;0.70;;;;;;;21.68;nan;93541.91;5010195;28;20201;-89
2022/05/31 07:10:19;;;;;;;1.37;0.67;;;;;;;21.84;nan;93536.59;5013704;28;20299;-88
2022/05/31 07:13:24;;;;;;;0.73;0.70;;;;;;;22.81;nan;93533.00;4970428;28;20222;-89
2022/05/31 07:16:11;;;;;;;0.90;0.70;;;;;;;22.89;nan;93538.16;4997189;28;20230;-90
2022/05/31 07:19:15;;;;;;;1.00;0.80;;;;;;;23.03;nan;93538.41;4991792;28;20827;-91
2022/05/31 07:22:01;;;;;;;1.63;0.77;;;;;;;23.47;nan;93534.91;5007749;28;20261;-90
2022/05/31 07:24:49;;;;;;;0.80;0.70;;;;;;;24.07;nan;93538.03;4983321;28;20293;-89
2022/05/31 07:27:42;;;;;;;0.73;0.57;;;;;;;23.84;nan;93531.22;4984998;28;20198;-88
2022/05/31 07:30:27;;;;;;;1.70;0.60;;;;;;;23.99;nan;93532.16;4981662;28;20223;-90
2022/05/31 07:33:13;;;;;;;0.60;0.60;;;;;;;24.26;nan;93531.13;5012267;28;20514;-92
2022/05/31 07:35:59;;;;;;;1.73;0.70;;;;;;;24.43;nan;93538.56;4984383;28;20199;-92
2022/05/31 07:38:44;;;;;;;3.05;0.90;;;;;;;24.54;nan;93543.00;4993638;28;20209;-91
2022/05/31 07:41:29;;;;;;;1.35;0.70;;;;;;;25.04;nan;93538.59;4977701;28;20217;-90
2022/05/31 07:44:14;;;;;;;0.98;0.77;;;;;;;25.49;nan;93525.41;4993221;28;20278;-88
2022/05/31 07:47:00;;;;;;;3.30;0.70;;;;;;;25.99;nan;93531.56;5011265;28;20203;-89
2022/05/31 07:49:45;;;;;;;2.58;0.55;;;;;;;26.68;nan;93526.25;4976106;28;20286;-90
2022/05/31 07:52:47;;;;;;;0.95;0.45;;;;;;;27.26;nan;93531.53;4988073;28;20265;-88
2022/05/31 07:56:10;;;;;;;2.95;1.02;;;;;;;26.57;nan;93533.38;5009190;28;20302;-93
2022/05/31 07:59:13;;;;;;;0.40;0.40;;;;;;;28.28;nan;93529.44;5010854;28;20710;-91
2022/05/31 08:02:01;;;;;;;2.38;0.60;;;;;;;28.77;nan;93532.22;4997945;28;20289;-90
2022/05/31 08:04:56;;;;;;;0.50;0.50;;;;;;;28.78;nan;93533.66;5017509;28;20229;-91
2022/05/31 08:07:43;;;;;;;0.77;0.77;;;;;;;29.54;nan;93535.47;5012164;28;20213;-90
2022/05/31 08:10:28;;;;;;;1.13;0.60;;;;;;;28.36;nan;93523.66;5031867;28;20200;-89
2022/05/31 08:13:13;;;;;;;1.17;0.50;;;;;;;28.84;nan;93527.88;5015267;28;20302;-90
2022/05/31 08:16:01;;;;;;;0.45;0.40;;;;;;;29.82;nan;93528.78;5027933;28;20233;-90
2022/05/31 08:18:46;;;;;;;0.65;0.55;;;;;;;30.87;nan;93527.09;5014560;28;20198;-91
2022/05/31 08:21:32;;;;;;;2.83;0.43;;;;;;;30.68;nan;93517.91;5005148;28;20280;-91
2022/05/31 08:24:17;;;;;;;0.77;0.55;;;;;;;30.11;nan;93524.25;5036048;28;20201;-92
2022/05/31 08:27:01;;;;;;;1.10;0.55;;;;;;;31.10;nan;93507.31;4987738;28;20202;-88
2022/05/31 08:29:46;;;;;;;5.63;0.50;;;;;;;31.30;nan;93507.03;5015206;28;20198;-92
2022/05/31 08:32:33;;;;;;;1.40;0.65;;;;;;;30.90;nan;93502.47;5025425;28;20288;-91
2022/05/31 08:35:17;;;;;;;0.47;0.47;;;;;;;31.03;nan;93505.94;5002641;28;20221;-90
2022/05/31 08:38:01;;;;;;;3.05;0.63;;;;;;;31.17;nan;93506.47;5000773;28;20274;-90
2022/05/31 08:41:01;;;;;;;2.17;0.55;;;;;;;30.07;nan;93518.47;5012555;28;20662;-92
2022/05/31 08:43:44;;;;;;;0.68;0.50;;;;;;;30.75;nan;93510.59;4998471;28;20202;-90
2022/05/31 08:46:56;;;;;;;0.60;0.60;;;;;;;29.82;nan;93510.72;5016931;28;20234;-90
2022/05/31 08:53:33;;;;;;;1.58;0.73;;;;;;;29.31;nan;93503.13;5028351;28;20321;-92
2022/05/31 08:59:45;;;;;;;4.38;0.60;;;;;;;30.46;nan;93503.66;5016981;28;20198;-92
2022/05/31 09:02:35;;;;;;;2.03;0.80;;;;;;;31.28;nan;93501.28;5015869;28;20325;-91
2022/05/31 09:05:31;;;;;;;1.48;0.63;;;;;;;30.92;nan;93506.03;5016744;28;20853;-92
2022/05/31 09:08:24;;;;;;;2.10;0.70;;;;;;;29.77;nan;93507.88;5015530;28;20264;-92
2022/05/31 09:11:14;;;;;;;1.13;0.80;;;;;;;30.88;nan;93503.19;5029699;28;20210;-92
2022/05/31 09:14:37;;;;;;;2.22;0.63;;;;;;;30.61;nan;93495.59;5004624;28;20202;-89
2022/05/31 09:17:52;;;;;;;0.88;0.40;;;;;;;31.37;nan;93499.69;5027570;28;20244;-88
2022/05/31 09:20:49;;;;;;;1.25;0.60;;;;;;;30.81;nan;93496.06;5019626;28;20696;-90
2022/05/31 09:23:38;;;;;;;0.57;0.57;;;;;;;31.95;nan;93494.50;5011226;28;20643;-91
2022/05/31 09:26:28;;;;;;;2.92;0.50;;;;;;;31.87;nan;93495.34;5003559;28;20230;-87
2022/05/31 09:29:16;;;;;;;0.60;0.55;;;;;;;31.49;nan;93496.63;5020092;28;20344;-91
2022/05/31 09:32:23;;;;;;;1.90;0.82;;;;;;;31.30;nan;93495.44;5032552;28;20566;-91
2022/05/31 09:35:14;;;;;;;0.70;0.70;;;;;;;32.32;nan;93495.34;5018459;28;20278;-90
2022/05/31 09:38:32;;;;;;;3.00;0.80;;;;;;;32.25;nan;93496.19;5004937;28;20202;-89
2022/05/31 09:41:40;;;;;;;1.23;0.73;;;;;;;32.82;nan;93490.06;5005522;28;20238;-89
2022/05/31 09:44:37;;;;;;;1.25;0.80;;;;;;;32.91;nan;93488.44;5018403;28;20249;-91
2022/05/31 09:47:28;;;;;;;2.03;0.70;;;;;;;32.51;nan;93484.84;5017474;28;20281;-89
2022/05/31 09:50:24;;;;;;;0.70;0.70;;;;;;;33.95;nan;93499.22;5018219;28;20635;-90
2022/05/31 09:57:05;;;;;;;1.27;0.70;;;;;;;33.62;nan;93492.75;5004044;28;20260;-89
2022/05/31 09:59:50;;;;;;;0.82;0.68;;;;;;;34.46;nan;93489.25;5005209;28;20214;-92
2022/05/31 10:03:13;;;;;;;2.45;0.68;;;;;;;34.90;nan;93493.19;5021374;28;20217;-91
2022/05/31 10:06:28;;;;;;;0.90;0.55;;;;;;;34.06;nan;93491.00;5014229;28;20276;-91
2022/05/31 10:09:18;;;;;;;3.85;0.93;;;;;;;33.17;nan;93482.09;5017980;28;20214;-91
2022/05/31 10:12:31;;;;;;;3.72;0.70;;;;;;;34.04;nan;93477.22;5001731;28;20226;-92
2022/05/31 10:15:45;;;;;;;2.13;0.68;;;;;;;35.30;nan;93473.88;5006909;28;20630;-91
2022/05/31 10:18:31;;;;;;;2.10;0.88;;;;;;;35.81;nan;93464.28;5026032;28;20198;-89
2022/05/31 10:21:26;;;;;;;1.42;0.85;;;;;;;34.56;nan;93468.63;4994766;28;20294;-90
2022/05/31 10:24:21;;;;;;;2.10;0.80;;;;;;;34.97;nan;93464.63;5017908;28;20895;-92
2022/05/31 10:27:28;;;;;;;1.17;0.80;;;;;;;35.70;nan;93460.25;5011289;28;20206;-92
2022/05/31 10:30:22;;;;;;;1.00;0.60;;;;;;;34.70;nan;93456.63;5011156;28;20706;-92
2022/05/31 10:33:24;;;;;;;4.60;0.73;;;;;;;36.69;nan;93451.13;4997074;28;20207;-92
2022/05/31 10:36:15;;;;;;;1.08;0.70;;;;;;;38.35;nan;93465.22;5006676;28;20242;-90
2022/05/31 10:39:10;;;;;;;1.10;0.80;;;;;;;37.68;nan;93464.28;5009340;28;20201;-92
2022/05/31 10:41:58;;;;;;;1.48;0.80;;;;;;;39.05;nan;93468.84;5013716;28;20227;-92
2022/05/31 10:44:51;;;;;;;1.60;0.80;;;;;;;38.75;nan;93459.88;4994279;28;20202;-93
2022/05/31 10:47:35;;;;;;;1.83;0.82;;;;;;;39.29;nan;93461.88;4985351;28;20198;-92
2022/05/31 10:50:22;;;;;;;1.55;0.88;;;;;;;36.21;nan;93456.44;5029028;28;20278;-91
2022/05/31 10:53:38;;;;;;;2.25;0.80;;;;;;;37.10;nan;93449.66;5001334;28;20567;-89
2022/05/31 10:56:28;;;;;;;1.50;0.50;;;;;;;36.07;nan;93445.91;5008724;28;20206;-91
2022/05/31 10:59:35;;;;;;;3.03;1.00;;;;;;;35.16;nan;93456.78;4996874;28;20226;-89
2022/05/31 11:02:23;;;;;;;1.52;0.80;;;;;;;35.86;nan;93447.38;5017156;28;20257;-91
2022/05/31 11:05:15;;;;;;;3.63;1.05;;;;;;;33.64;nan;93449.09;5007806;28;20262;-90
2022/05/31 11:12:02;;;;;;;2.22;1.17;;;;;;;35.99;nan;93448.38;5015162;28;20737;-92
2022/05/31 11:15:02;;;;;;;1.45;0.85;;;;;;;35.18;nan;93453.81;5003763;28;20669;-91
2022/05/31 11:18:05;;;;;;;3.78;0.95;;;;;;;36.94;nan;93453.88;5002595;28;20190;-89
2022/05/31 11:21:03;;;;;;;1.10;1.00;;;;;;;35.57;nan;93447.53;5025744;28;20324;-92
2022/05/31 11:24:29;;;;;;;2.53;0.73;;;;;;;33.72;nan;93446.03;5013059;28;20566;-90
2022/05/31 11:27:38;;;;;;;2.58;0.77;;;;;;;33.26;nan;93448.53;5032267;28;20272;-88
2022/05/31 11:31:00;;;;;;;2.67;0.80;;;;;;;33.57;nan;93442.00;5024101;28;20202;-91
2022/05/31 11:34:05;;;;;;;2.65;0.90;;;;;;;32.38;nan;93440.13;4996544;28;20625;-91
2022/05/31 11:37:19;;;;;;;2.38;0.70;;;;;;;33.64;nan;93434.56;5028937;28;20875;-89
2022/05/31 11:40:13;;;;;;;1.27;0.90;;;;;;;32.87;nan;93433.38;4992659;28;20230;-89
2022/05/31 11:43:21;;;;;;;2.15;0.90;;;;;;;33.80;nan;93437.13;4994381;28;20693;-91
2022/05/31 11:46:20;;;;;;;1.25;0.73;;;;;;;33.55;nan;93444.97;5017144;28;20829;-92
2022/05/31 11:49:11;;;;;;;1.58;1.08;;;;;;;33.36;nan;93443.94;5016423;28;20226;-91
2022/05/31 11:52:20;;;;;;;3.55;1.08;;;;;;;33.46;nan;93443.72;5017752;28;20248;-85
2022/05/31 11:55:34;;;;;;;0.98;0.70;;;;;;;33.31;nan;93449.84;4998137;28;20634;-89
2022/05/31 11:58:30;;;;;;;1.42;0.70;;;;;;;33.24;nan;93445.66;5028811;28;20709;-86
2022/05/31 12:01:46;;;;;;;3.50;0.98;;;;;;;33.81;nan;93437.84;5030609;28;20221;-89
2022/05/31 12:04:44;;;;;;;2.65;1.10;;;;;;;33.26;nan;93442.72;4999310;28;20283;-90
2022/05/31 12:07:38;;;;;;;4.80;0.90;;;;;;;33.41;nan;93445.28;5031864;28;20218;-90
2022/05/31 12:10:32;;;;;;;3.35;0.80;;;;;;;34.89;nan;93445.88;5028018;28;20890;-88
2022/05/31 12:13:19;;;;;;;2.20;0.80;;;;;;;35.39;nan;93445.91;5012215;28;20253;-92
2022/05/31 12:16:04;;;;;;;1.83;0.93;;;;;;;36.55;nan;93447.97;5031672;28;20205;-90
2022/05/31 12:18:56;;;;;;;2.97;0.85;;;;;;;34.06;nan;93451.00;5014205;28;20249;-88
2022/05/31 12:21:49;;;;;;;3.78;1.08;;;;;;;34.32;nan;93446.69;5015757;28;20325;-89
2022/05/31 12:24:45;;;;;;;1.98;1.10;;;;;;;33.31;nan;93452.75;5029145;28;20252;-90
2022/05/31 12:28:10;;;;;;;1.85;0.90;;;;;;;33.27;nan;93444.13;5009036;28;20233;-88
2022/05/31 12:31:08;;;;;;;2.90;1.23;;;;;;;30.74;nan;93433.94;4972927;28;20222;-90
2022/05/31 12:34:09;;;;;;;3.70;0.98;;;;;;;29.96;nan;93432.63;5030585;28;20289;-86
2022/05/31 12:37:12;;;;;;;4.47;1.05;;;;;;;30.15;nan;93440.38;5023756;28;20700;-87
2022/05/31 12:40:23;;;;;;;6.97;2.13;;;;;;;30.48;nan;93437.88;5022533;28;20256;-90
2022/05/31 12:43:35;;;;;;;3.85;1.20;;;;;;;31.28;nan;93440.47;5028336;28;20288;-89
2022/05/31 12:46:46;;;;;;;2.28;1.00;;;;;;;31.28;nan;93440.47;5018650;28;20241;-87
2022/05/31 12:49:34;;;;;;;5.22;1.65;;;;;;;32.50;nan;93444.97;5022359;28;20222;-85
2022/05/31 12:55:36;;;;;;;2.78;0.93;;;;;;;34.28;nan;93443.91;5025959;28;20256;-89
2022/05/31 12:58:42;;;;;;;2.45;0.88;;;;;;;33.75;nan;93452.50;5019203;28;20213;-87
2022/05/31 13:01:27;;;;;;;5.75;1.00;;;;;;;33.41;nan;93451.81;5031050;28;20233;-88
2022/05/31 13:04:26;;;;;;;2.42;0.80;;;;;;;32.39;nan;93453.16;5019973;28;20562;-86
2022/05/31 13:07:17;;;;;;;2.40;0.90;;;;;;;33.00;nan;93451.97;5013844;28;20202;-91
2022/05/31 13:10:27;;;;;;;1.92;0.85;;;;;;;31.00;nan;93452.41;5018264;28;20237;-90
2022/05/31 13:20:14;;;;;;;1.65;1.00;;;;;;;29.82;nan;93459.44;4981311;28;20195;-90
2022/05/31 13:23:09;;;;;;;2.38;0.98;;;;;;;28.73;nan;93477.41;5014317;28;20218;-88
2022/05/31 13:26:20;;;;;;;3.28;1.20;;;;;;;28.65;nan;93474.56;5009226;28;20288;-89
2022/05/31 13:29:08;;;;;;;2.92;0.93;;;;;;;28.58;nan;93477.47;5015292;28;20231;-89
2022/05/31 13:31:56;;;;;;;3.63;1.27;;;;;;;28.27;nan;93470.34;5010295;28;20325;-90
2022/05/31 13:34:43;;;;;;;1.67;0.93;;;;;;;28.42;nan;93485.47;5004691;28;20270;-88
2022/05/31 13:37:27;;;;;;;4.78;1.33;;;;;;;27.09;nan;93481.16;5012493;28;20206;-86
2022/05/31 13:40:12;;;;;;;4.18;1.10;;;;;;;26.89;nan;93487.56;5001154;28;20242;-87
2022/05/31 13:42:57;;;;;;;3.13;1.20;;;;;;;26.22;nan;93494.41;4984819;28;20199;-83
2022/05/31 13:45:42;;;;;;;3.87;1.10;;;;;;;24.44;nan;93494.16;4994881;28;20298;-83
2022/05/31 13:48:37;;;;;;;2.07;1.27;;;;;;;25.72;nan;93481.16;5005649;28;20270;-88
2022/05/31 13:51:25;;;;;;;4.67;1.40;;;;;;;24.86;nan;93496.09;5017753;28;20221;-87
2022/05/31 13:54:21;;;;;;;4.30;1.30;;;;;;;26.26;nan;93491.56;5019074;28;20273;-88
2022/05/31 13:57:07;;;;;;;3.47;1.13;;;;;;;25.89;nan;93494.19;5032982;28;20191;-90
2022/05/31 13:59:56;;;;;;;4.30;1.20;;;;;;;25.43;nan;93508.84;5027084;28;20268;-89
2022/05/31 14:02:52;;;;;;;6.00;1.33;;;;;;;25.79;nan;93499.88;5015450;28;20199;-87
2022/05/31 14:05:47;;;;;;;2.47;1.10;;;;;;;25.21;nan;93500.75;5001553;28;20302;-89
2022/05/31 14:08:46;;;;;;;3.40;1.13;;;;;;;24.80;nan;93504.63;4997648;28;20202;-88
2022/05/31 14:12:06;;;;;;;1.70;0.90;;;;;;;25.50;nan;93501.75;5016054;28;20199;-89
2022/05/31 14:14:53;;;;;;;4.90;1.53;;;;;;;25.01;nan;93517.75;4996613;28;20249;-88
2022/05/31 14:17:41;;;;;;;2.33;1.30;;;;;;;24.72;nan;93525.28;4999723;28;20637;-90
2022/05/31 14:20:28;;;;;;;3.97;1.33;;;;;;;24.05;nan;93541.56;4985332;28;20588;-86
2022/05/31 14:23:23;;;;;;;2.80;1.07;;;;;;;23.16;nan;93533.63;4997648;28;20219;-90
2022/05/31 14:26:10;;;;;;;3.10;1.07;;;;;;;23.04;nan;93533.41;4999224;28;20234;-87
2022/05/31 14:29:14;;;;;;;2.07;1.30;;;;;;;23.01;nan;93535.53;5011035;28;20198;-89
2022/05/31 14:32:02;;;;;;;2.17;1.30;;;;;;;23.51;nan;93530.00;5001230;28;20199;-90
2022/05/31 14:34:52;;;;;;;3.87;1.00;;;;;;;24.06;nan;93530.84;4993216;28;20206;-91